Aiken, Texas
Current Conditions -  °F | °C
As of 5:55 AM on Monday 22 Dec 2014 (Local Time) from KPVW Reporting Station
Clear Clear  
Wind Chill: 35°   Ceiling: Unl
Heat Index: 42°   Visibility: 10mi
Dew Point: 32°   Wind: 14mph
Humidity: 67%   Direction: 300°WNW
Pressure: 29.64"   Gusts: NA
Location:  34.14°N, 101.53°W
Report Text: KPVW 221155Z AUTO 30012KT 10SM CLR 06/00 A2964 RMK AO2 T00570001 10100 20043
Loading
Personal Weather Stations






























Interactive Weather Map New forecast layout! Learn more

10-Day Weather Forecast

Advertisements
Track Severe Weather on mobile